Time;durP1;ratioP1;P1;durP2;ratioP2;P2;SDS_P1;SDS_P2;PMS_P1;PMS_P2;Temp;Humidity;BMP_temperature;BMP_pressure;BME280_temperature;BME280_humidity;BME280_pressure;Samples;Min_cycle;Max_cycle;Signal;HPM_P1;HPM_P2
2022/08/01 00:00:28;;;;;;;46.28;23.95;;;;;;;18.01;100.00;101532.28;5095736;28;20115;-47
2022/08/01 00:02:54;;;;;;;47.67;27.15;;;;;;;17.98;100.00;101527.03;5094791;28;20050;-47
2022/08/01 00:05:19;;;;;;;46.65;25.48;;;;;;;17.99;100.00;101528.78;5095918;28;20020;-44
2022/08/01 00:07:45;;;;;;;46.08;25.98;;;;;;;17.97;100.00;101524.41;5095835;28;20020;-47
2022/08/01 00:10:13;;;;;;;44.60;25.98;;;;;;;17.96;100.00;101533.97;5094855;28;20487;-45
2022/08/01 00:12:39;;;;;;;49.53;26.92;;;;;;;17.99;100.00;101536.59;5095682;28;20024;-47
2022/08/01 00:15:06;;;;;;;53.83;26.80;;;;;;;18.00;100.00;101535.75;5095377;28;20031;-45
2022/08/01 00:17:32;;;;;;;46.05;26.88;;;;;;;17.99;100.00;101528.78;5095005;28;20032;-46
2022/08/01 00:19:58;;;;;;;50.92;27.73;;;;;;;17.96;100.00;101531.38;5095311;28;20024;-49
2022/08/01 00:22:23;;;;;;;55.53;27.42;;;;;;;17.98;100.00;101531.38;5095489;28;20028;-48
2022/08/01 00:24:48;;;;;;;55.75;27.55;;;;;;;17.99;100.00;101533.13;5094675;28;20031;-46
2022/08/01 00:27:14;;;;;;;49.38;26.88;;;;;;;17.98;100.00;101527.03;5095090;28;20040;-46
2022/08/01 00:29:39;;;;;;;50.25;27.63;;;;;;;17.98;100.00;101527.03;5095515;28;20526;-48
2022/08/01 00:32:04;;;;;;;52.72;27.88;;;;;;;18.00;100.00;101535.75;5094615;28;20040;-47
2022/08/01 00:34:30;;;;;;;64.40;28.10;;;;;;;17.98;100.00;101529.63;5095413;28;20069;-45
2022/08/01 00:36:55;;;;;;;49.70;27.90;;;;;;;17.97;100.00;101540.91;5094974;28;20024;-48
2022/08/01 00:39:20;;;;;;;49.08;27.35;;;;;;;17.96;100.00;101539.19;5094715;28;20439;-48
2022/08/01 00:41:45;;;;;;;58.05;29.15;;;;;;;17.99;100.00;101539.22;5094857;28;20043;-48
2022/08/01 00:44:11;;;;;;;59.78;29.40;;;;;;;17.96;100.00;101531.38;5094922;28;20050;-47
2022/08/01 00:46:36;;;;;;;58.20;29.10;;;;;;;17.99;100.00;101543.56;5094604;28;20063;-47
2022/08/01 00:49:02;;;;;;;65.63;30.75;;;;;;;17.95;100.00;101542.66;5094656;28;20024;-48
2022/08/01 00:51:27;;;;;;;61.78;30.23;;;;;;;17.92;100.00;101542.56;5094832;28;20020;-46
2022/08/01 00:53:53;;;;;;;55.88;30.60;;;;;;;17.89;100.00;101555.59;5094122;28;20040;-44
2022/08/01 00:56:24;;;;;;;65.13;32.60;;;;;;;17.87;100.00;101557.28;5094870;28;20455;-43
2022/08/01 00:58:50;;;;;;;58.15;29.73;;;;;;;17.87;100.00;101552.09;5094627;28;20032;-46
2022/08/01 01:01:15;;;;;;;56.15;32.08;;;;;;;17.85;100.00;101554.69;5094715;28;20051;-48
2022/08/01 01:03:40;;;;;;;51.80;29.23;;;;;;;17.80;100.00;101555.50;5094733;28;20031;-48
2022/08/01 01:06:25;;;;;;;49.33;28.50;;;;;;;17.80;100.00;101558.09;5093679;28;20459;-49
2022/08/01 01:09:24;;;;;;;55.45;30.65;;;;;;;17.82;100.00;101556.38;5094651;28;20059;-44
2022/08/01 01:12:31;;;;;;;54.83;28.52;;;;;;;17.79;100.00;101549.38;5093322;28;20024;-47
2022/08/01 01:15:04;;;;;;;51.53;29.10;;;;;;;17.72;100.00;101556.28;5083092;28;20089;-47
2022/08/01 01:17:38;;;;;;;48.10;28.15;;;;;;;17.72;100.00;101551.06;5094753;28;20020;-46
2022/08/01 01:20:07;;;;;;;51.53;27.58;;;;;;;17.70;100.00;101551.91;5093424;28;20365;-46
2022/08/01 01:23:10;;;;;;;47.15;26.95;;;;;;;17.73;100.00;101551.97;5094452;28;20044;-47
2022/08/01 01:25:38;;;;;;;47.13;26.70;;;;;;;17.67;100.00;101551.88;5094163;28;20032;-46
2022/08/01 01:28:29;;;;;;;51.75;27.13;;;;;;;17.68;100.00;101549.28;5093313;28;20371;-47
2022/08/01 01:30:57;;;;;;;44.42;25.40;;;;;;;17.62;100.00;101538.78;5094074;28;20086;-44
2022/08/01 01:33:28;;;;;;;41.55;25.33;;;;;;;17.63;100.00;101545.75;5093959;28;20046;-46
2022/08/01 01:35:59;;;;;;;49.45;27.50;;;;;;;17.69;100.00;101551.03;5093252;28;20073;-47
2022/08/01 01:38:29;;;;;;;51.17;27.58;;;;;;;17.68;100.00;101543.22;5094421;28;20028;-47
2022/08/01 01:40:56;;;;;;;49.42;26.75;;;;;;;17.63;100.00;101545.75;5093174;28;20027;-46
2022/08/01 01:43:24;;;;;;;47.80;25.30;;;;;;;17.62;100.00;101546.59;5093980;28;20044;-48
2022/08/01 01:45:51;;;;;;;53.20;27.50;;;;;;;17.65;100.00;101549.25;5093948;28;20535;-46
2022/08/01 01:48:19;;;;;;;48.45;25.77;;;;;;;17.64;100.00;101547.50;5092900;28;20058;-46
2022/08/01 01:50:45;;;;;;;;;;;;;;;17.71;100.00;101546.69;5094520;28;20024;-46
2022/08/01 01:53:13;;;;;;;43.67;24.13;;;;;;;17.60;100.00;101543.97;5093748;28;19915;-43
2022/08/01 01:55:40;;;;;;;44.90;25.02;;;;;;;17.60;100.00;101540.50;5093152;28;20024;-49
2022/08/01 01:58:08;;;;;;;41.13;23.43;;;;;;;17.58;100.00;101543.13;5093600;28;20051;-46
2022/08/01 02:00:35;;;;;;;42.15;23.55;;;;;;;17.54;100.00;101543.91;5093583;28;20028;-47
2022/08/01 02:03:04;;;;;;;44.30;24.27;;;;;;;17.55;100.00;101544.81;5092613;28;20111;-47
2022/08/01 02:05:34;;;;;;;44.10;24.05;;;;;;;17.51;100.00;101535.19;5093520;28;20036;-45
2022/08/01 02:08:00;;;;;;;45.67;23.67;;;;;;;17.51;100.00;101537.81;5093204;28;20099;-44
2022/08/01 02:10:28;;;;;;;38.87;22.20;;;;;;;17.47;100.00;101543.81;5093358;28;20028;-45
2022/08/01 02:12:55;;;;;;;39.58;22.08;;;;;;;17.50;100.00;101541.25;5093307;28;20036;-46
2022/08/01 02:15:22;;;;;;;43.28;23.10;;;;;;;17.49;100.00;101542.13;5093233;28;20050;-46
2022/08/01 02:17:50;;;;;;;42.30;23.67;;;;;;;17.46;100.00;101537.75;5093131;28;20025;-46
2022/08/01 02:20:16;;;;;;;;;;;;;;;17.58;100.00;101544.81;5093459;28;20381;-45
2022/08/01 02:22:51;;;;;;;44.50;24.40;;;;;;;17.53;100.00;101543.91;5092937;28;19912;-45
2022/08/01 02:25:25;;;;;;;44.38;23.52;;;;;;;17.53;100.00;101550.00;5092651;28;20024;-46
2022/08/01 02:28:01;;;;;;;42.88;23.17;;;;;;;17.50;100.00;101546.47;5093256;28;20036;-45
2022/08/01 02:30:32;;;;;;;46.05;23.38;;;;;;;17.51;100.00;101545.63;5092729;28;20032;-45
2022/08/01 02:33:14;;;;;;;44.58;24.60;;;;;;;17.53;100.00;101549.09;5093092;28;20032;-47
2022/08/01 02:35:42;;;;;;;39.65;24.02;;;;;;;17.48;100.00;101540.34;5093408;28;20050;-46
2022/08/01 02:38:10;;;;;;;46.90;24.75;;;;;;;17.49;100.00;101544.72;5092226;28;20017;-45
2022/08/01 02:40:39;;;;;;;41.88;23.55;;;;;;;17.48;100.00;101556.00;5093353;28;20110;-45
2022/08/01 02:43:06;;;;;;;46.00;24.25;;;;;;;17.54;100.00;101556.06;5092497;28;20044;-46
2022/08/01 02:45:35;;;;;;;44.43;24.90;;;;;;;17.50;100.00;101549.94;5092665;28;20028;-45
2022/08/01 02:48:12;;;;;;;48.40;24.98;;;;;;;17.53;100.00;101555.22;5092966;28;20032;-47
2022/08/01 02:50:41;;;;;;;45.08;22.92;;;;;;;17.48;100.00;101550.78;5092747;28;20114;-45
2022/08/01 02:53:09;;;;;;;49.72;23.85;;;;;;;17.51;100.00;101535.19;5092197;28;20016;-45
2022/08/01 02:55:37;;;;;;;44.13;24.13;;;;;;;17.47;100.00;101554.22;5093077;28;20016;-46
2022/08/01 02:58:03;;;;;;;47.28;25.27;;;;;;;17.50;100.00;101549.94;5092639;28;20073;-45
2022/08/01 03:00:30;;;;;;;41.55;23.05;;;;;;;17.47;100.00;101543.81;5092528;28;20055;-47
2022/08/01 03:02:56;;;;;;;40.35;22.52;;;;;;;17.42;100.00;101547.25;5092796;28;20035;-46
2022/08/01 03:05:25;;;;;;;43.08;22.70;;;;;;;17.38;100.00;101539.38;5092100;28;20070;-46
2022/08/01 03:07:52;;;;;;;43.13;23.25;;;;;;;17.36;100.00;101536.75;5092717;28;20475;-47
2022/08/01 03:10:17;;;;;;;44.65;23.40;;;;;;;17.28;100.00;101543.59;5092919;28;20054;-45
2022/08/01 03:12:45;;;;;;;45.53;23.75;;;;;;;17.22;100.00;101535.69;5092026;28;20028;-45
2022/08/01 03:15:11;;;;;;;;;;;;;;;17.34;100.00;101548.88;5093010;28;20020;-45
2022/08/01 03:17:39;;;;;;;43.00;23.60;;;;;;;17.20;100.00;101553.06;5092779;28;20003;-44
2022/08/01 03:20:06;;;;;;;45.80;23.35;;;;;;;17.18;100.00;101546.94;5091634;28;20017;-45
2022/08/01 03:22:33;;;;;;;42.55;22.70;;;;;;;17.14;100.00;101537.34;5092888;28;20025;-45
2022/08/01 03:25:00;;;;;;;42.40;22.95;;;;;;;17.10;100.00;101539.88;5092705;28;20024;-45
2022/08/01 03:27:26;;;;;;;46.63;24.55;;;;;;;17.13;100.00;101549.47;5091895;28;20042;-45
2022/08/01 03:29:54;;;;;;;45.17;23.23;;;;;;;17.08;100.00;101558.94;5092779;28;20020;-44
2022/08/01 03:32:21;;;;;;;48.25;24.15;;;;;;;17.03;100.00;101564.09;5092317;28;20032;-46
2022/08/01 03:34:47;;;;;;;43.55;23.75;;;;;;;17.06;100.00;101558.91;5093020;28;20375;-45
2022/08/01 03:37:25;;;;;;;49.08;25.38;;;;;;;17.12;100.00;101558.16;5096418;28;20028;-45
2022/08/01 03:40:02;;;;;;;50.25;25.50;;;;;;;17.08;100.00;101562.44;5096333;28;20028;-48
2022/08/01 03:42:33;;;;;;;48.10;24.93;;;;;;;17.11;100.00;101566.81;5095723;28;20048;-47
2022/08/01 03:45:03;;;;;;;47.72;26.00;;;;;;;17.04;100.00;101563.25;5095993;28;20024;-45
2022/08/01 03:47:34;;;;;;;41.70;22.48;;;;;;;16.94;100.00;101564.84;5095780;28;20081;-47
2022/08/01 03:50:02;;;;;;;40.97;22.85;;;;;;;16.92;100.00;101565.66;5096105;28;20032;-45
2022/08/01 03:52:29;;;;;;;45.90;23.02;;;;;;;16.84;100.00;101562.91;5096333;28;20031;-46
2022/08/01 03:54:56;;;;;;;40.22;22.45;;;;;;;16.74;100.00;101567.09;5094906;28;20450;-46
2022/08/01 03:57:23;;;;;;;42.97;23.42;;;;;;;16.75;100.00;101566.25;5096019;28;20387;-44
2022/08/01 03:59:50;;;;;;;39.92;21.63;;;;;;;16.59;100.00;101565.13;5096191;28;20028;-49
2022/08/01 04:02:16;;;;;;;40.28;22.00;;;;;;;16.53;100.00;101561.56;5095172;28;20119;-45
2022/08/01 04:04:42;;;;;;;42.80;21.92;;;;;;;16.49;100.00;101564.94;5096005;28;20081;-45
2022/08/01 04:07:25;;;;;;;46.58;24.60;;;;;;;16.44;100.00;101555.34;5095420;28;20028;-44
2022/08/01 04:09:51;;;;;;;46.08;22.95;;;;;;;16.38;100.00;101557.84;5095288;28;20106;-46
2022/08/01 04:12:17;;;;;;;47.70;22.60;;;;;;;16.33;100.00;101556.88;5095512;28;20031;-45
2022/08/01 04:14:43;;;;;;;50.30;23.63;;;;;;;16.34;100.00;101561.25;5095661;28;20032;-46
2022/08/01 04:17:08;;;;;;;44.40;22.92;;;;;;;16.33;100.00;101563.81;5095106;28;20103;-45
2022/08/01 04:19:33;;;;;;;44.78;23.70;;;;;;;16.32;100.00;101562.06;5095653;28;20057;-46
2022/08/01 04:21:59;;;;;;;57.22;24.35;;;;;;;16.37;100.00;101571.72;5095156;28;20111;-45
2022/08/01 04:24:27;;;;;;;48.25;24.88;;;;;;;16.41;100.00;101585.63;5094824;28;20073;-45
2022/08/01 04:26:52;;;;;;;50.92;24.55;;;;;;;16.39;100.00;101579.53;5095185;28;20498;-45
2022/08/01 04:29:20;;;;;;;57.00;25.88;;;;;;;16.46;100.00;101584.88;5095406;28;20048;-45
2022/08/01 04:31:47;;;;;;;;;;;;;;;16.45;100.00;101583.13;5095420;28;20024;-46
2022/08/01 04:34:17;;;;;;;41.67;22.35;;;;;;;16.28;100.00;101576.72;5095195;28;19926;-44
2022/08/01 04:36:44;;;;;;;49.63;24.45;;;;;;;16.29;100.00;101575.88;5094524;28;20117;-44
2022/08/01 04:39:10;;;;;;;51.25;24.33;;;;;;;16.23;100.00;101575.78;5094900;28;20418;-46
2022/08/01 04:41:37;;;;;;;49.05;24.30;;;;;;;16.19;100.00;101586.97;5095415;28;20031;-44
2022/08/01 04:44:02;;;;;;;54.83;24.92;;;;;;;16.24;100.00;101585.34;5094380;28;20050;-45
2022/08/01 04:46:29;;;;;;;46.10;23.65;;;;;;;16.22;100.00;101582.72;5094941;28;20028;-46
2022/08/01 04:48:55;;;;;;;43.60;23.88;;;;;;;16.24;100.00;101586.22;5094813;28;20031;-45
2022/08/01 04:51:22;;;;;;;53.92;23.83;;;;;;;16.19;100.00;101579.16;5094342;28;20028;-46
2022/08/01 04:53:47;;;;;;;55.40;25.13;;;;;;;16.19;100.00;101582.66;5094924;28;20024;-44
2022/08/01 04:56:13;;;;;;;51.28;24.77;;;;;;;16.19;100.00;101586.97;5094844;28;20028;-48
2022/08/01 04:58:42;;;;;;;52.75;25.27;;;;;;;16.23;100.00;101593.97;5094271;28;20387;-47
2022/08/01 05:01:09;;;;;;;51.30;25.33;;;;;;;16.25;100.00;101594.91;5094570;28;20112;-44
2022/08/01 05:03:34;;;;;;;55.47;25.92;;;;;;;16.26;100.00;101596.66;5094680;28;20078;-44
2022/08/01 05:05:59;;;;;;;52.25;25.00;;;;;;;16.31;100.00;101592.41;5093983;28;20379;-45
2022/08/01 05:08:25;;;;;;;53.67;26.73;;;;;;;16.39;100.00;101593.41;5094467;28;20016;-46
2022/08/01 05:10:50;;;;;;;54.88;26.80;;;;;;;16.51;100.00;101597.09;5094526;28;20467;-45
2022/08/01 05:13:15;;;;;;;56.30;26.55;;;;;;;16.59;100.00;101595.47;5093961;28;20087;-44
2022/08/01 05:15:41;;;;;;;54.72;25.17;;;;;;;16.69;100.00;101604.31;5094630;28;20120;-45
2022/08/01 05:18:06;;;;;;;56.92;27.13;;;;;;;16.78;100.00;101614.88;5094136;28;20024;-44
2022/08/01 05:20:32;;;;;;;53.45;25.90;;;;;;;16.86;100.00;101607.19;5093857;28;20419;-44
2022/08/01 05:22:57;;;;;;;52.47;25.33;;;;;;;16.89;100.00;101609.84;5094103;28;20534;-45
2022/08/01 05:25:23;;;;;;;53.58;25.02;;;;;;;16.96;100.00;101606.50;5094308;28;20028;-45
2022/08/01 05:27:49;;;;;;;53.63;25.08;;;;;;;16.97;100.00;101610.88;5093856;28;20417;-44
2022/08/01 05:30:15;;;;;;;54.45;27.10;;;;;;;17.07;100.00;101607.56;5094135;28;20107;-44
2022/08/01 05:32:40;;;;;;;51.63;25.17;;;;;;;17.07;100.00;101601.50;5094024;28;20100;-46
2022/08/01 05:35:07;;;;;;;50.72;26.00;;;;;;;17.13;100.00;101619.78;5093472;28;20103;-45
2022/08/01 05:37:32;;;;;;;52.25;24.80;;;;;;;17.20;100.00;101612.97;5094026;28;20364;-44
2022/08/01 05:40:01;;;;;;;47.10;21.70;;;;;;;17.28;100.00;101621.75;5093146;28;20490;-44
2022/08/01 05:42:26;;;;;;;46.53;23.17;;;;;;;17.39;100.00;101620.19;5093997;28;20052;-45
2022/08/01 05:44:51;;;;;;;32.63;18.25;;;;;;;17.34;100.00;101610.53;5093990;28;20124;-45
2022/08/01 05:47:17;;;;;;;33.88;18.77;;;;;;;17.43;100.00;101610.69;5092934;28;20068;-45
2022/08/01 05:49:43;;;;;;;32.15;18.05;;;;;;;17.48;100.00;101611.63;5093824;28;20032;-45
2022/08/01 05:52:09;;;;;;;32.53;17.15;;;;;;;17.48;100.00;101605.50;5093607;28;20027;-45
2022/08/01 05:54:34;;;;;;;26.88;14.80;;;;;;;17.51;100.00;101608.16;5093369;28;20024;-46
2022/08/01 05:57:01;;;;;;;31.27;17.02;;;;;;;17.58;100.00;101612.59;5093106;28;20029;-45
2022/08/01 05:59:27;;;;;;;28.95;16.55;;;;;;;17.60;100.00;101616.97;5093728;28;20027;-46
2022/08/01 06:01:52;;;;;;;27.45;15.10;;;;;;;17.61;100.00;101615.22;5092794;28;20060;-44
2022/08/01 06:04:18;;;;;;;29.25;16.35;;;;;;;17.61;100.00;101618.72;5093633;28;20054;-45
2022/08/01 06:06:43;;;;;;;25.85;14.38;;;;;;;17.60;100.00;101622.19;5093250;28;20069;-46
2022/08/01 06:09:08;;;;;;;29.98;15.38;;;;;;;17.65;100.00;101624.84;5092725;28;20019;-45
2022/08/01 06:11:34;;;;;;;26.58;15.30;;;;;;;17.67;100.00;101625.72;5093554;28;20506;-45
2022/08/01 06:13:59;;;;;;;25.77;14.93;;;;;;;17.66;100.00;101623.97;5093115;28;20031;-45
2022/08/01 06:16:24;;;;;;;25.30;14.52;;;;;;;17.68;100.00;101624.88;5092954;28;20048;-44
2022/08/01 06:18:50;;;;;;;24.42;14.15;;;;;;;17.85;100.00;101632.03;5093487;28;20028;-46
2022/08/01 06:21:15;;;;;;;21.88;14.13;;;;;;;18.01;100.00;101625.28;5092981;28;20382;-45
2022/08/01 06:23:42;;;;;;;23.55;14.38;;;;;;;18.20;100.00;101629.00;5092960;28;20471;-45
2022/08/01 06:26:07;;;;;;;22.63;14.10;;;;;;;18.27;100.00;101626.47;5093134;28;20030;-46
2022/08/01 06:28:33;;;;;;;21.13;13.00;;;;;;;18.31;100.00;101629.97;5093099;28;20098;-45
2022/08/01 06:30:59;;;;;;;22.77;12.88;;;;;;;18.28;100.00;101629.94;5092480;28;20463;-49
2022/08/01 06:33:24;;;;;;;19.60;10.93;;;;;;;18.33;100.00;101628.25;5093284;28;20089;-45
2022/08/01 06:35:50;;;;;;;20.55;11.95;;;;;;;18.24;100.00;101631.66;5092852;28;20028;-45
2022/08/01 06:38:15;;;;;;;17.45;10.05;;;;;;;18.30;100.00;101638.66;5092556;28;20438;-44
2022/08/01 06:40:40;;;;;;;19.08;10.73;;;;;;;18.27;100.00;101638.66;5093006;28;20473;-45
2022/08/01 06:43:06;;;;;;;17.38;9.80;;;;;;;18.53;100.00;101643.25;5092640;28;20499;-46
2022/08/01 06:45:31;;;;;;;15.98;9.40;;;;;;;18.66;100.00;101645.09;5092594;28;20318;-45
2022/08/01 06:47:56;;;;;;;14.50;8.55;;;;;;;18.82;100.00;101648.69;5092732;28;20056;-45
2022/08/01 06:50:22;;;;;;;13.70;8.63;;;;;;;18.94;100.00;101642.75;5092272;28;20039;-44
2022/08/01 06:52:47;;;;;;;14.90;8.52;;;;;;;19.00;100.00;101647.13;5093280;28;20024;-45
2022/08/01 06:55:13;;;;;;;13.27;7.63;;;;;;;19.02;99.10;101654.13;5092823;28;20093;-47
2022/08/01 06:57:47;;;;;;;13.80;6.35;;;;;;;19.08;98.56;101651.56;5092186;28;20107;-46
2022/08/01 07:00:13;;;;;;;13.27;7.35;;;;;;;19.14;99.41;101657.69;5092625;28;20433;-44
2022/08/01 07:02:38;;;;;;;13.35;7.15;;;;;;;19.28;98.12;101657.81;5092654;28;20533;-47
2022/08/01 07:05:04;;;;;;;11.27;7.32;;;;;;;19.40;98.75;101650.88;5092061;28;20027;-48
2022/08/01 07:07:30;;;;;;;11.63;7.40;;;;;;;19.40;98.08;101653.50;5092979;28;20059;-46
2022/08/01 07:09:55;;;;;;;11.02;7.00;;;;;;;19.66;96.14;101650.13;5095406;28;20024;-46
2022/08/01 07:12:21;;;;;;;12.35;7.00;;;;;;;19.80;96.61;101657.19;5096493;28;20054;-46
2022/08/01 07:14:46;;;;;;;13.57;6.85;;;;;;;19.69;93.63;101655.41;5097013;28;20020;-44
2022/08/01 07:17:11;;;;;;;14.73;6.18;;;;;;;19.62;94.06;101663.22;5096408;28;20571;-45
2022/08/01 07:19:37;;;;;;;11.57;5.90;;;;;;;19.63;94.81;101651.88;5096241;28;20490;-45
2022/08/01 07:22:02;;;;;;;11.63;4.72;;;;;;;19.59;94.44;101656.22;5096695;28;20085;-44
2022/08/01 07:24:28;;;;;;;11.02;4.82;;;;;;;19.54;92.54;101655.31;5096659;28;20375;-44
2022/08/01 07:26:54;;;;;;;10.63;5.25;;;;;;;19.48;93.97;101660.50;5095970;28;20032;-44
2022/08/01 07:29:24;;;;;;;10.50;5.90;;;;;;;19.56;94.80;101659.69;5096638;28;20024;-46
2022/08/01 07:31:52;;;;;;;9.98;6.15;;;;;;;19.51;94.26;101665.75;5096367;28;20019;-46
2022/08/01 07:34:18;;;;;;;12.55;5.53;;;;;;;19.54;92.55;101660.56;5095879;28;20023;-44
2022/08/01 07:36:43;;;;;;;14.30;5.80;;;;;;;19.63;94.25;101664.97;5096630;28;20068;-46
2022/08/01 07:39:08;;;;;;;11.38;5.47;;;;;;;19.71;93.14;101664.09;5095914;28;20387;-47
2022/08/01 07:41:33;;;;;;;10.35;5.70;;;;;;;19.76;92.48;101666.75;5095919;28;20032;-45
2022/08/01 07:43:59;;;;;;;11.82;5.05;;;;;;;19.80;92.68;101665.03;5095970;28;20044;-45
2022/08/01 07:46:24;;;;;;;9.73;5.07;;;;;;;19.86;92.16;101668.59;5095921;28;20037;-45
2022/08/01 07:48:50;;;;;;;9.05;4.80;;;;;;;19.83;91.85;101679.03;5096034;28;20499;-46
2022/08/01 07:51:15;;;;;;;7.88;5.15;;;;;;;19.85;91.53;101672.06;5096147;28;20062;-45
2022/08/01 07:53:40;;;;;;;9.15;4.90;;;;;;;19.81;92.25;101677.25;5095293;28;20020;-46
2022/08/01 07:56:06;;;;;;;9.30;4.95;;;;;;;19.99;93.44;101685.19;5095770;28;20020;-45
2022/08/01 07:58:32;;;;;;;10.73;4.18;;;;;;;20.20;89.84;101688.75;5096227;28;20016;-46
2022/08/01 08:00:57;;;;;;;7.53;4.50;;;;;;;20.18;87.33;101680.91;5095045;28;20101;-45
2022/08/01 08:03:22;;;;;;;7.60;4.32;;;;;;;20.35;87.73;101677.47;5095992;28;20364;-45
2022/08/01 08:05:48;;;;;;;7.38;3.42;;;;;;;20.43;87.35;101680.09;5095680;28;20111;-45
2022/08/01 08:08:15;;;;;;;6.32;3.38;;;;;;;20.59;86.01;101676.63;5095254;28;20400;-46
2022/08/01 08:10:40;;;;;;;7.60;3.50;;;;;;;20.63;85.94;101675.78;5095858;28;20467;-46
2022/08/01 08:13:06;;;;;;;9.65;3.55;;;;;;;20.80;87.91;101674.91;5095273;28;20053;-47
2022/08/01 08:15:31;;;;;;;6.70;3.33;;;;;;;20.82;84.41;101678.44;5095239;28;20028;-45
2022/08/01 08:17:56;;;;;;;5.95;3.00;;;;;;;20.71;82.77;101670.56;5095285;28;20039;-46
2022/08/01 08:20:24;;;;;;;12.52;4.18;;;;;;;20.80;85.11;101680.16;5094924;28;20092;-48
2022/08/01 08:22:51;;;;;;;7.35;3.10;;;;;;;20.92;84.46;101674.94;5095337;28;20077;-45
2022/08/01 08:25:18;;;;;;;6.87;2.90;;;;;;;21.03;82.87;101677.53;5095460;28;20013;-45
2022/08/01 08:27:44;;;;;;;;;;;;;;;21.24;86.28;101681.91;5095742;28;20024;-45
2022/08/01 08:30:10;;;;;;;9.33;3.57;;;;;;;20.91;82.06;101672.31;5094644;28;19912;-46
2022/08/01 08:32:36;;;;;;;5.65;3.40;;;;;;;20.86;82.37;101677.53;5095420;28;20278;-44
2022/08/01 08:35:02;;;;;;;5.47;2.65;;;;;;;20.77;82.78;101681.03;5094840;28;20077;-49
2022/08/01 08:37:27;;;;;;;5.72;3.30;;;;;;;21.05;83.19;101676.66;5094982;28;20051;-45
2022/08/01 08:39:52;;;;;;;7.40;3.47;;;;;;;21.34;82.25;101673.16;5095106;28;20028;-47
2022/08/01 08:42:18;;;;;;;6.88;3.47;;;;;;;21.57;82.59;101682.72;5094719;28;20395;-45
2022/08/01 08:44:43;;;;;;;7.00;4.28;;;;;;;21.79;78.84;101687.91;5094635;28;20580;-45
2022/08/01 08:47:11;;;;;;;7.65;3.60;;;;;;;21.83;77.87;101685.28;5094788;28;20391;-46
2022/08/01 08:49:38;;;;;;;5.43;3.25;;;;;;;21.87;75.80;101688.75;5094815;28;20479;-45
2022/08/01 08:52:04;;;;;;;11.10;4.00;;;;;;;22.25;78.11;101685.06;5094271;28;20345;-46
2022/08/01 08:54:30;;;;;;;5.32;3.83;;;;;;;22.28;73.99;101679.78;5095003;28;20036;-45
2022/08/01 08:56:57;;;;;;;10.13;4.05;;;;;;;22.50;77.17;101679.69;5093825;28;20382;-45
2022/08/01 08:59:26;;;;;;;11.23;3.77;;;;;;;22.67;75.05;101683.06;5094891;28;20035;-46
2022/08/01 09:01:51;;;;;;;8.80;3.75;;;;;;;22.62;73.50;101682.25;5094816;28;20035;-45
2022/08/01 09:04:17;;;;;;;5.57;3.42;;;;;;;22.75;74.53;101685.66;5094165;28;20028;-45
2022/08/01 09:06:42;;;;;;;7.57;4.07;;;;;;;22.67;73.21;101687.44;5094815;28;20352;-47
2022/08/01 09:09:09;;;;;;;7.88;5.05;;;;;;;22.64;73.87;101688.34;5094262;28;20463;-46
2022/08/01 09:11:37;;;;;;;7.05;3.92;;;;;;;22.67;74.36;101693.59;5094182;28;20024;-44
2022/08/01 09:14:05;;;;;;;4.80;3.75;;;;;;;22.71;72.11;101702.31;5094426;28;20024;-47
2022/08/01 09:16:32;;;;;;;5.82;4.00;;;;;;;23.15;72.64;101702.84;5094474;28;20020;-45
2022/08/01 09:19:14;;;;;;;5.80;3.83;;;;;;;23.64;72.03;101702.34;5094124;28;20032;-45
2022/08/01 09:21:54;;;;;;;4.63;3.20;;;;;;;23.73;69.08;101703.13;5094608;28;20103;-46
2022/08/01 09:24:19;;;;;;;9.18;4.40;;;;;;;23.66;68.97;101703.19;5094231;28;20073;-46
2022/08/01 09:26:44;;;;;;;7.68;4.07;;;;;;;23.88;69.96;101702.94;5093632;28;20027;-46
2022/08/01 09:29:18;;;;;;;5.63;3.67;;;;;;;23.96;69.19;101702.88;5093949;28;20024;-45
2022/08/01 09:31:45;;;;;;;8.25;3.60;;;;;;;23.68;68.88;101711.97;5093638;28;20027;-45
2022/08/01 09:34:10;;;;;;;7.20;3.53;;;;;;;23.37;67.99;101705.28;5092900;28;20475;-46
2022/08/01 09:36:51;;;;;;;10.02;3.50;;;;;;;23.02;69.74;101721.34;5094143;28;20096;-46
2022/08/01 09:39:19;;;;;;;6.32;3.20;;;;;;;22.76;71.35;101715.41;5093112;28;20095;-47
2022/08/01 09:41:45;;;;;;;9.27;5.00;;;;;;;22.68;73.07;101708.47;5094044;28;20020;-46
2022/08/01 09:44:11;;;;;;;9.20;4.15;;;;;;;22.71;71.64;101714.56;5093776;28;20145;-45
2022/08/01 09:46:49;;;;;;;6.53;4.00;;;;;;;23.12;72.15;101708.13;5093320;28;20107;-46
2022/08/01 09:49:14;;;;;;;8.95;4.32;;;;;;;23.36;69.38;101704.41;5093728;28;20020;-47
2022/08/01 09:51:40;;;;;;;9.35;3.95;;;;;;;23.45;69.38;101714.84;5093630;28;20020;-48
2022/08/01 09:54:06;;;;;;;6.25;3.75;;;;;;;23.71;67.16;101715.44;5093225;28;20050;-45
2022/08/01 09:56:42;;;;;;;7.83;3.60;;;;;;;23.95;67.69;101725.72;5094031;28;20024;-45
2022/08/01 09:59:09;;;;;;;8.73;3.95;;;;;;;24.46;67.75;101721.53;5093362;28;20072;-46
2022/08/01 10:01:50;;;;;;;8.18;3.47;;;;;;;24.57;67.49;101722.25;5093198;28;20051;-46
2022/08/01 10:04:17;;;;;;;4.03;2.30;;;;;;;24.30;63.21;101723.53;5093159;28;20356;-47
2022/08/01 10:06:52;;;;;;;13.10;3.55;;;;;;;25.17;64.42;101717.78;5093540;28;20031;-49
2022/08/01 10:09:28;;;;;;;3.85;2.70;;;;;;;25.59;62.66;101719.69;5092189;28;20475;-46
2022/08/01 10:11:55;;;;;;;3.93;2.70;;;;;;;26.27;58.60;101713.91;5092543;28;20032;-46
2022/08/01 10:14:22;;;;;;;4.82;2.30;;;;;;;26.38;59.01;101718.09;5092053;28;20341;-47
2022/08/01 10:16:47;;;;;;;;;;;;;;;26.50;63.01;101717.78;5093100;28;20353;-51
2022/08/01 10:19:13;;;;;;;5.50;2.25;;;;;;;26.29;56.54;101717.38;5092241;28;19931;-47
2022/08/01 10:21:39;;;;;;;2.95;1.90;;;;;;;27.06;53.53;101722.63;5092200;28;20020;-47
2022/08/01 10:24:05;;;;;;;4.50;1.70;;;;;;;28.05;54.00;101729.69;5092032;28;20060;-48
2022/08/01 10:26:33;;;;;;;4.53;2.13;;;;;;;28.64;51.59;101733.16;5092383;28;20024;-47
2022/08/01 10:28:59;;;;;;;4.25;2.40;;;;;;;27.96;50.97;101735.25;5091400;28;20419;-46
2022/08/01 10:31:27;;;;;;;4.43;1.70;;;;;;;26.89;52.24;101723.03;5092560;28;20395;-46
2022/08/01 10:33:53;;;;;;;5.63;2.03;;;;;;;25.51;55.78;101726.88;5091950;28;20262;-46
2022/08/01 10:36:22;;;;;;;3.03;1.80;;;;;;;24.41;58.89;101733.91;5091841;28;20057;-46
2022/08/01 10:38:48;;;;;;;3.88;2.08;;;;;;;23.61;62.39;101726.06;5092599;28;20364;-46
2022/08/01 10:41:15;;;;;;;2.38;1.70;;;;;;;22.95;65.85;101735.41;5091906;28;20490;-47
2022/08/01 10:43:41;;;;;;;4.15;1.63;;;;;;;22.34;66.10;101740.16;5091413;28;20059;-47
2022/08/01 10:46:07;;;;;;;2.78;1.42;;;;;;;21.71;69.92;101740.41;5091930;28;20028;-48
2022/08/01 10:48:47;;;;;;;4.78;2.00;;;;;;;21.12;73.46;101736.94;5092202;28;20054;-47
2022/08/01 10:51:15;;;;;;;4.85;1.90;;;;;;;20.50;76.54;101744.69;5091465;28;20027;-46
2022/08/01 10:53:47;;;;;;;7.22;2.30;;;;;;;20.10;80.99;101744.56;5092324;28;20072;-46
2022/08/01 10:56:13;;;;;;;4.55;2.25;;;;;;;19.78;81.68;101745.22;5091527;28;20039;-46
2022/08/01 10:58:41;;;;;;;6.18;2.50;;;;;;;19.49;82.52;101753.78;5091986;28;20032;-46
2022/08/01 11:01:23;;;;;;;4.20;2.50;;;;;;;19.42;83.02;101756.34;5091845;28;20024;-46
2022/08/01 11:04:00;;;;;;;4.47;1.83;;;;;;;19.68;79.85;101747.78;5091729;28;20016;-46
2022/08/01 11:06:36;;;;;;;6.75;1.77;;;;;;;20.30;78.35;101748.13;5092063;28;20077;-44
2022/08/01 11:09:04;;;;;;;3.60;1.50;;;;;;;21.80;74.27;101756.13;5091716;28;20057;-45
2022/08/01 11:11:30;;;;;;;4.03;1.40;;;;;;;22.97;71.30;101761.69;5091675;28;20027;-45
2022/08/01 11:14:09;;;;;;;5.43;1.60;;;;;;;23.48;65.08;101756.88;5091706;28;20024;-49